TimeCET,TemperatureF,Dew PointF,Humidity,Sea Level PressureIn,VisibilityMPH,Wind Direction,Wind SpeedMPH,Gust SpeedMPH,PrecipitationIn,Events,Conditions,WindDirDegrees,DateUTC
12:00 AM,37.4,35.6,93,29.83,6.2,WNW,5.8,-,N/A,,Unknown,300,2012-11-28 23:00:00
12:30 AM,39.2,37.4,93,29.83,6.2,NW,4.6,-,N/A,,Unknown,310,2012-11-28 23:30:00
1:00 AM,40,37,87,29.85,34,NNW,5.8,,,,Clear,330,2012-11-29 00:00:00
1:00 AM,39.2,37.4,93,29.83,6.2,NNW,5.8,-,N/A,,Unknown,330,2012-11-29 00:00:00
1:30 AM,39.2,37.4,93,29.83,6.2,NW,6.9,-,N/A,,Unknown,320,2012-11-29 00:30:00
2:00 AM,37.4,33.8,87,29.83,6.2,NW,5.8,-,N/A,,Unknown,310,2012-11-29 01:00:00
2:30 AM,37.4,37.4,100,29.83,6.2,NW,6.9,-,N/A,,Unknown,310,2012-11-29 01:30:00
3:00 AM,39.2,35.6,87,29.86,6.2,NW,6.9,-,N/A,,Unknown,320,2012-11-29 02:00:00
3:30 AM,37.4,35.6,93,29.86,6.2,NW,6.9,-,N/A,,Unknown,310,2012-11-29 02:30:00
4:00 AM,37.4,35.6,93,29.86,6.2,WNW,6.9,-,N/A,,Unknown,300,2012-11-29 03:00:00
4:30 AM,35.6,33.8,93,29.86,6.2,WNW,5.8,-,N/A,,Unknown,290,2012-11-29 03:30:00
5:00 AM,35.6,33.8,93,29.86,6.2,WNW,4.6,-,N/A,,Unknown,290,2012-11-29 04:00:00
5:30 AM,35.6,33.8,93,29.89,6.2,WNW,4.6,-,N/A,,Unknown,290,2012-11-29 04:30:00
6:00 AM,33.8,33.8,100,29.89,6.2,WNW,6.9,-,N/A,,Unknown,290,2012-11-29 05:00:00
6:30 AM,33.8,32.0,93,29.89,5.6,West,5.8,-,N/A,,Unknown,280,2012-11-29 05:30:00
7:00 AM,33,32,92,29.92,4,West,6.9,,,,Clear,270,2012-11-29 06:00:00
7:00 AM,32.0,32.0,100,29.89,3.7,West,6.9,-,N/A,,Unknown,270,2012-11-29 06:00:00
7:30 AM,32.0,32.0,100,29.89,3.1,West,5.8,-,N/A,,Mist,270,2012-11-29 06:30:00
8:00 AM,33.8,32.0,93,29.92,3.7,West,5.8,-,N/A,,Unknown,280,2012-11-29 07:00:00
8:30 AM,35.6,35.6,100,29.92,6.2,Variable,2.3,-,N/A,,Unknown,0,2012-11-29 07:30:00
9:00 AM,35.6,35.6,100,29.92,5.0,Variable,1.2,-,N/A,,Unknown,0,2012-11-29 08:00:00
9:30 AM,35.6,35.6,100,29.92,6.2,Variable,2.3,-,N/A,,Unknown,0,2012-11-29 08:30:00
10:00 AM,37.4,35.6,93,29.92,6.2,Variable,2.3,-,N/A,,Unknown,0,2012-11-29 09:00:00
10:30 AM,41.0,41.0,100,29.92,6.2,NNW,4.6,-,N/A,,Unknown,340,2012-11-29 09:30:00
11:00 AM,44.6,39.2,81,29.92,6.2,NNW,6.9,-,N/A,,Unknown,340,2012-11-29 10:00:00
11:30 AM,46.4,39.2,76,29.95,6.2,North,10.4,-,N/A,,Partly Cloudy,350,2012-11-29 10:30:00
12:00 PM,46.4,39.2,76,29.92,6.2,North,8.1,-,N/A,,Partly Cloudy,350,2012-11-29 11:00:00
12:30 PM,48.2,37.4,66,29.92,6.2,NNW,6.9,-,N/A,,Mostly Cloudy,330,2012-11-29 11:30:00
1:00 PM,48,37,56,29.93,37,North,11.5,,,,Clear,350,2012-11-29 12:00:00
1:00 PM,48.2,37.4,66,29.92,6.2,North,11.5,-,N/A,,Scattered Clouds,350,2012-11-29 12:00:00
1:30 PM,48.2,35.6,62,29.89,6.2,North,12.7,-,N/A,,Mostly Cloudy,350,2012-11-29 12:30:00
2:00 PM,48.2,33.8,58,29.89,6.2,NW,9.2,-,N/A,,Mostly Cloudy,320,2012-11-29 13:00:00
2:30 PM,48.2,32.0,54,29.89,6.2,NNW,12.7,-,N/A,,Scattered Clouds,330,2012-11-29 13:30:00
3:00 PM,46.4,30.2,53,29.89,6.2,NNW,10.4,-,N/A,,Partly Cloudy,330,2012-11-29 14:00:00
3:30 PM,48.2,30.2,50,29.89,6.2,NW,10.4,-,N/A,,Unknown,320,2012-11-29 14:30:00
4:00 PM,46.4,30.2,53,29.89,6.2,NNW,6.9,-,N/A,,Mostly Cloudy,330,2012-11-29 15:00:00
4:30 PM,46.4,30.2,53,29.89,6.2,NNW,5.8,-,N/A,,Unknown,340,2012-11-29 15:30:00
5:00 PM,44.6,30.2,57,29.89,6.2,NNW,5.8,-,N/A,,Unknown,340,2012-11-29 16:00:00
5:30 PM,42.8,30.2,61,29.86,6.2,NW,4.6,-,N/A,,Scattered Clouds,320,2012-11-29 16:30:00
6:00 PM,41.0,32.0,70,29.86,6.2,NW,3.5,-,N/A,,Scattered Clouds,310,2012-11-29 17:00:00
6:30 PM,39.2,32.0,75,29.86,6.2,NW,3.5,-,N/A,,Unknown,320,2012-11-29 17:30:00
7:00 PM,36,32,81,29.90,9,Calm,Calm,,,,Clear,,2012-11-29 18:00:00
7:00 PM,35.6,32.0,87,29.86,6.2,Calm,Calm,-,N/A,,Mostly Cloudy,0,2012-11-29 18:00:00
7:30 PM,37.4,32.0,81,29.86,6.2,Calm,Calm,-,N/A,,Mostly Cloudy,0,2012-11-29 18:30:00
8:00 PM,37.4,33.8,87,29.86,6.2,Calm,Calm,-,N/A,,Mostly Cloudy,0,2012-11-29 19:00:00
8:30 PM,33.8,32.0,93,29.86,6.2,Calm,Calm,-,N/A,,Unknown,0,2012-11-29 19:30:00
9:00 PM,32.0,30.2,93,29.86,6.2,Calm,Calm,-,N/A,,Unknown,0,2012-11-29 20:00:00
9:30 PM,32.0,30.2,93,29.86,6.2,Calm,Calm,-,N/A,,Unknown,0,2012-11-29 20:30:00
10:00 PM,32.0,30.2,93,29.86,1.6,Calm,Calm,-,N/A,,Mist,0,2012-11-29 21:00:00
10:30 PM,30.2,28.4,93,29.86,6.2,Calm,Calm,-,N/A,,Unknown,0,2012-11-29 21:30:00
11:00 PM,28.4,26.6,93,29.86,6.2,ENE,2.3,-,N/A,,Unknown,70,2012-11-29 22:00:00
11:30 PM,28.4,26.6,93,29.86,6.2,Calm,Calm,-,N/A,,Unknown,0,2012-11-29 22:30:00